Time;durP1;ratioP1;P1;durP2;ratioP2;P2;SDS_P1;SDS_P2;PMS_P1;PMS_P2;Temp;Humidity;BMP_temperature;BMP_pressure;BME280_temperature;BME280_humidity;BME280_pressure;Samples;Min_cycle;Max_cycle;Signal;HPM_P1;HPM_P2
2023/09/08 00:00:30;;;;;;;2.33;2.07;;;;;;;;;;5071009;28;20204;-84
2023/09/08 00:02:58;;;;;;;1.07;1.07;;;;;;;;;;5070896;28;20212;-84
2023/09/08 00:05:27;;;;;;;0.30;0.30;;;;;;;;;;5070921;28;20191;-82
2023/09/08 00:07:56;;;;;;;0.20;0.20;;;;;;;;;;5071221;28;20201;-82
2023/09/08 00:10:24;;;;;;;0.30;0.30;;;;;;;;;;5071419;28;20203;-83
2023/09/08 00:12:54;;;;;;;5.40;1.43;;;;;;;;;;5074796;28;20206;-83
2023/09/08 00:15:22;;;;;;;1.60;1.03;;;;;;;;;;5074957;28;20253;-83
2023/09/08 00:17:51;;;;;;;0.50;0.50;;;;;;;;;;5074777;28;20204;-82
2023/09/08 00:20:19;;;;;;;0.20;0.20;;;;;;;;;;5075081;28;20206;-82
2023/09/08 00:22:48;;;;;;;0.27;0.27;;;;;;;;;;5075379;28;20229;-82
2023/09/08 00:25:16;;;;;;;0.80;0.80;;;;;;;;;;5074960;28;20260;-82
2023/09/08 00:27:48;;;;;;;1.57;1.57;;;;;;;;;;5074762;28;20209;-83
2023/09/08 00:30:17;;;;;;;0.40;0.40;;;;;;;;;;5075029;28;20246;-83
2023/09/08 00:32:46;;;;;;;1.60;1.50;;;;;;;;;;5074948;28;20269;-83
2023/09/08 00:35:14;;;;;;;0.57;0.57;;;;;;;;;;5074214;28;20193;-83
2023/09/08 00:37:43;;;;;;;0.63;0.63;;;;;;;;;;5074659;28;20258;-82
2023/09/08 00:40:12;;;;;;;1.87;1.13;;;;;;;;;;5074901;28;20208;-82
2023/09/08 00:42:40;;;;;;;0.20;0.20;;;;;;;;;;5074260;28;20208;-82
2023/09/08 00:45:09;;;;;;;0.30;0.30;;;;;;;;;;5074688;28;20201;-83
2023/09/08 00:47:39;;;;;;;1.37;1.37;;;;;;;;;;5074391;28;20204;-83
2023/09/08 00:50:08;;;;;;;2.73;1.73;;;;;;;;;;5074501;28;20199;-82
2023/09/08 00:52:37;;;;;;;0.50;0.50;;;;;;;;;;5074669;28;20199;-83
2023/09/08 00:55:05;;;;;;;0.77;0.77;;;;;;;;;;5073993;28;20216;-83
2023/09/08 00:57:34;;;;;;;0.60;0.60;;;;;;;;;;5074351;28;20231;-83
2023/09/08 01:00:05;;;;;;;0.77;0.77;;;;;;;;;;5073896;28;20199;-84
2023/09/08 01:02:33;;;;;;;0.80;0.80;;;;;;;;;;5073080;28;20333;-84
2023/09/08 01:05:03;;;;;;;0.93;0.93;;;;;;;;;;5074008;28;20208;-83
2023/09/08 01:07:32;;;;;;;1.40;1.33;;;;;;;;;;5073968;28;20204;-83
2023/09/08 01:10:04;;;;;;;1.63;0.77;;;;;;;;;;5073711;28;20202;-83
2023/09/08 01:12:33;;;;;;;1.40;1.40;;;;;;;;;;5073673;28;20193;-82
2023/09/08 01:15:01;;;;;;;1.30;1.30;;;;;;;;;;5074305;28;20325;-82
2023/09/08 01:17:30;;;;;;;1.30;1.30;;;;;;;;;;5074466;28;20289;-83
2023/09/08 01:20:00;;;;;;;0.60;0.60;;;;;;;;;;5073794;28;20210;-83
2023/09/08 01:22:39;;;;;;;1.03;0.70;;;;;;;;;;5073462;28;20219;-83
2023/09/08 01:25:22;;;;;;;1.60;1.60;;;;;;;;;;5074035;28;20296;-82
2023/09/08 01:27:51;;;;;;;1.03;1.03;;;;;;;;;;5073864;28;20240;-83
2023/09/08 01:30:21;;;;;;;0.30;0.30;;;;;;;;;;5073477;28;20203;-82
2023/09/08 01:32:49;;;;;;;0.40;0.40;;;;;;;;;;5073839;28;20200;-83
2023/09/08 01:35:18;;;;;;;0.57;0.57;;;;;;;;;;5073851;28;20205;-83
2023/09/08 01:37:47;;;;;;;0.20;0.20;;;;;;;;;;5073737;28;20232;-83
2023/09/08 01:40:16;;;;;;;4.10;2.60;;;;;;;;;;5073724;28;20279;-82
2023/09/08 01:42:46;;;;;;;0.30;0.30;;;;;;;;;;5073628;28;20226;-83
2023/09/08 01:45:15;;;;;;;0.50;0.50;;;;;;;;;;5073456;28;20211;-82
2023/09/08 01:47:43;;;;;;;0.67;0.67;;;;;;;;;;5073130;28;20198;-82
2023/09/08 01:50:12;;;;;;;0.30;0.30;;;;;;;;;;5073747;28;20261;-82
2023/09/08 01:52:40;;;;;;;0.63;0.63;;;;;;;;;;5073672;28;20194;-83
2023/09/08 01:55:11;;;;;;;0.97;0.97;;;;;;;;;;5073332;28;20205;-83
2023/09/08 01:57:40;;;;;;;0.30;0.30;;;;;;;;;;5073894;28;20203;-82
2023/09/08 02:00:11;;;;;;;0.30;0.30;;;;;;;;;;5073020;28;20196;-83
2023/09/08 02:02:39;;;;;;;0.27;0.27;;;;;;;;;;5073265;28;20235;-83
2023/09/08 02:05:08;;;;;;;0.20;0.20;;;;;;;;;;5072987;28;20271;-82
2023/09/08 02:07:37;;;;;;;0.20;0.20;;;;;;;;;;5072754;28;20194;-83
2023/09/08 02:10:06;;;;;;;0.30;0.30;;;;;;;;;;5073200;28;20248;-82
2023/09/08 02:12:34;;;;;;;0.30;0.30;;;;;;;;;;5073273;28;20209;-83
2023/09/08 02:15:03;;;;;;;0.20;0.20;;;;;;;;;;5072467;28;20276;-82
2023/09/08 02:17:34;;;;;;;0.30;0.30;;;;;;;;;;5072712;28;20197;-82
2023/09/08 02:20:02;;;;;;;0.30;0.30;;;;;;;;;;5072589;28;20212;-83
2023/09/08 02:22:31;;;;;;;0.30;0.30;;;;;;;;;;5072821;28;20204;-82
2023/09/08 02:24:59;;;;;;;0.30;0.30;;;;;;;;;;5072260;28;20195;-83
2023/09/08 02:27:28;;;;;;;0.70;0.70;;;;;;;;;;5072724;28;20201;-82
2023/09/08 02:29:57;;;;;;;0.20;0.20;;;;;;;;;;5072866;28;20205;-83
2023/09/08 02:32:25;;;;;;;0.40;0.40;;;;;;;;;;5072175;28;20205;-83
2023/09/08 02:34:55;;;;;;;0.30;0.30;;;;;;;;;;5071736;28;20208;-83
2023/09/08 02:37:24;;;;;;;0.40;0.40;;;;;;;;;;5072916;28;20213;-82
2023/09/08 02:39:52;;;;;;;0.27;0.27;;;;;;;;;;5071746;28;20192;-83
2023/09/08 02:42:21;;;;;;;0.83;0.83;;;;;;;;;;5072349;28;20226;-82
2023/09/08 02:44:49;;;;;;;1.23;1.23;;;;;;;;;;5072210;28;20322;-84
2023/09/08 02:47:18;;;;;;;3.00;1.17;;;;;;;;;;5071956;28;20208;-83
2023/09/08 02:49:46;;;;;;;0.40;0.40;;;;;;;;;;5071255;28;20198;-84
2023/09/08 02:52:17;;;;;;;0.80;0.80;;;;;;;;;;5071849;28;20200;-84
2023/09/08 02:54:46;;;;;;;0.40;0.40;;;;;;;;;;5072025;28;20254;-84
2023/09/08 02:57:14;;;;;;;0.90;0.90;;;;;;;;;;5072108;28;20249;-83
2023/09/08 02:59:43;;;;;;;0.20;0.20;;;;;;;;;;5071486;28;20202;-84
2023/09/08 03:02:12;;;;;;;0.30;0.30;;;;;;;;;;5071775;28;20207;-84
2023/09/08 03:04:40;;;;;;;0.50;0.50;;;;;;;;;;5071637;28;20244;-82
2023/09/08 03:07:13;;;;;;;0.30;0.30;;;;;;;;;;5072092;28;20344;-83
2023/09/08 03:09:43;;;;;;;0.30;0.30;;;;;;;;;;5071622;28;20199;-82
2023/09/08 03:12:11;;;;;;;0.30;0.30;;;;;;;;;;5071972;28;20201;-83
2023/09/08 03:14:40;;;;;;;0.47;0.47;;;;;;;;;;5071510;28;20232;-83
2023/09/08 03:17:08;;;;;;;0.30;0.30;;;;;;;;;;5071367;28;20385;-83
2023/09/08 03:19:37;;;;;;;0.30;0.30;;;;;;;;;;5070956;28;20203;-83
2023/09/08 03:22:05;;;;;;;0.97;0.97;;;;;;;;;;5071377;28;20196;-83
2023/09/08 03:24:34;;;;;;;3.93;3.60;;;;;;;;;;5071914;28;20223;-84
2023/09/08 03:27:04;;;;;;;1.50;1.20;;;;;;;;;;5071260;28;20200;-84
2023/09/08 03:29:32;;;;;;;0.30;0.30;;;;;;;;;;5071744;28;20294;-83
2023/09/08 03:32:00;;;;;;;0.33;0.33;;;;;;;;;;5071700;28;20210;-84
2023/09/08 03:34:29;;;;;;;0.30;0.30;;;;;;;;;;5071609;28;20206;-83
2023/09/08 03:36:58;;;;;;;0.30;0.30;;;;;;;;;;5070969;28;20225;-84
2023/09/08 03:39:26;;;;;;;0.40;0.40;;;;;;;;;;5071410;28;20204;-83
2023/09/08 03:41:55;;;;;;;0.87;0.87;;;;;;;;;;5071778;28;20208;-84
2023/09/08 03:44:24;;;;;;;0.30;0.30;;;;;;;;;;5071190;28;20237;-83
2023/09/08 03:46:53;;;;;;;0.30;0.30;;;;;;;;;;5074746;28;20201;-83
2023/09/08 03:49:21;;;;;;;0.30;0.30;;;;;;;;;;5075414;28;20203;-83
2023/09/08 03:51:49;;;;;;;0.30;0.30;;;;;;;;;;5075359;28;20205;-83
2023/09/08 03:54:18;;;;;;;0.40;0.40;;;;;;;;;;5074917;28;20198;-83
2023/09/08 03:56:46;;;;;;;0.63;0.63;;;;;;;;;;5075646;28;20208;-82
2023/09/08 03:59:15;;;;;;;0.30;0.30;;;;;;;;;;5075850;28;20205;-82
2023/09/08 04:01:44;;;;;;;0.30;0.30;;;;;;;;;;5075401;28;20216;-82
2023/09/08 04:04:13;;;;;;;0.30;0.30;;;;;;;;;;5075690;28;20238;-82
2023/09/08 04:06:42;;;;;;;0.30;0.30;;;;;;;;;;5076724;28;20197;-82
2023/09/08 04:09:11;;;;;;;0.70;0.70;;;;;;;;;;5076718;28;20250;-82
2023/09/08 04:11:39;;;;;;;0.40;0.40;;;;;;;;;;5076062;28;20226;-83
2023/09/08 04:14:08;;;;;;;0.30;0.30;;;;;;;;;;5075191;28;20244;-84
2023/09/08 04:16:36;;;;;;;0.70;0.70;;;;;;;;;;5075958;28;20300;-83
2023/09/08 04:19:06;;;;;;;2.27;2.13;;;;;;;;;;5075551;28;20205;-84
2023/09/08 04:21:35;;;;;;;1.80;1.30;;;;;;;;;;5075503;28;20255;-83
2023/09/08 04:24:04;;;;;;;1.23;1.23;;;;;;;;;;5075748;28;20214;-84
2023/09/08 04:26:33;;;;;;;0.37;0.37;;;;;;;;;;5075700;28;20261;-83
2023/09/08 04:29:02;;;;;;;0.30;0.30;;;;;;;;;;5075621;28;20207;-84
2023/09/08 04:31:30;;;;;;;0.70;0.70;;;;;;;;;;5075547;28;20208;-84
2023/09/08 04:33:59;;;;;;;0.30;0.30;;;;;;;;;;5075449;28;20209;-83
2023/09/08 04:36:30;;;;;;;0.30;0.30;;;;;;;;;;5075738;28;20253;-82
2023/09/08 04:38:58;;;;;;;0.20;0.20;;;;;;;;;;5075751;28;20207;-82
2023/09/08 04:41:27;;;;;;;0.40;0.40;;;;;;;;;;5076132;28;20208;-82
2023/09/08 04:43:57;;;;;;;0.30;0.30;;;;;;;;;;5075549;28;20247;-82
2023/09/08 04:46:26;;;;;;;2.07;1.43;;;;;;;;;;5075378;28;20194;-83
2023/09/08 04:48:55;;;;;;;0.50;0.50;;;;;;;;;;5074491;28;20188;-82
2023/09/08 04:51:24;;;;;;;0.30;0.30;;;;;;;;;;5075832;28;20296;-82
2023/09/08 04:53:53;;;;;;;0.30;0.30;;;;;;;;;;5075302;28;20216;-82
2023/09/08 04:56:22;;;;;;;0.30;0.30;;;;;;;;;;5075824;28;20206;-82
2023/09/08 04:58:51;;;;;;;0.30;0.30;;;;;;;;;;5074977;28;20211;-82
2023/09/08 05:01:19;;;;;;;0.30;0.30;;;;;;;;;;5075290;28;20197;-84
2023/09/08 05:03:48;;;;;;;0.30;0.30;;;;;;;;;;5075390;28;20303;-84
2023/09/08 05:06:17;;;;;;;0.30;0.30;;;;;;;;;;5074622;28;20206;-84
2023/09/08 05:08:46;;;;;;;0.30;0.30;;;;;;;;;;5074519;28;20211;-83
2023/09/08 05:11:16;;;;;;;0.30;0.30;;;;;;;;;;5074859;28;20203;-83
2023/09/08 05:13:48;;;;;;;1.77;1.67;;;;;;;;;;5074806;28;20203;-82
2023/09/08 05:16:18;;;;;;;0.30;0.30;;;;;;;;;;5074303;28;20236;-82
2023/09/08 05:18:47;;;;;;;0.23;0.23;;;;;;;;;;5074750;28;20270;-82
2023/09/08 05:21:16;;;;;;;3.40;3.30;;;;;;;;;;5074228;28;20288;-82
2023/09/08 05:23:44;;;;;;;0.40;0.40;;;;;;;;;;5074045;28;20224;-82
2023/09/08 05:26:13;;;;;;;1.13;1.13;;;;;;;;;;5074589;28;20233;-82
2023/09/08 05:28:43;;;;;;;0.30;0.30;;;;;;;;;;5074752;28;20208;-83
2023/09/08 05:31:12;;;;;;;0.43;0.43;;;;;;;;;;5074425;28;20235;-82
2023/09/08 05:33:41;;;;;;;0.87;0.87;;;;;;;;;;5073616;28;20205;-83
2023/09/08 05:36:10;;;;;;;1.53;1.53;;;;;;;;;;5073620;28;20305;-82
2023/09/08 05:38:42;;;;;;;0.90;0.90;;;;;;;;;;5073637;28;20191;-82
2023/09/08 05:41:12;;;;;;;0.30;0.30;;;;;;;;;;5073799;28;20275;-82
2023/09/08 05:43:40;;;;;;;4.30;2.43;;;;;;;;;;5073937;28;20214;-82
2023/09/08 05:46:10;;;;;;;0.30;0.30;;;;;;;;;;5073294;28;20246;-82
2023/09/08 05:48:39;;;;;;;0.30;0.30;;;;;;;;;;5074170;28;20235;-82
2023/09/08 05:51:07;;;;;;;1.23;1.23;;;;;;;;;;5074026;28;20202;-81
2023/09/08 05:53:39;;;;;;;0.20;0.20;;;;;;;;;;5073854;28;20200;-81
2023/09/08 05:56:08;;;;;;;0.40;0.40;;;;;;;;;;5074081;28;20201;-82
2023/09/08 05:58:36;;;;;;;0.30;0.30;;;;;;;;;;5073799;28;20211;-81
2023/09/08 06:01:05;;;;;;;2.13;1.63;;;;;;;;;;5073786;28;20208;-81
2023/09/08 06:03:35;;;;;;;0.40;0.40;;;;;;;;;;5074209;28;20202;-84
2023/09/08 06:06:04;;;;;;;5.40;3.30;;;;;;;;;;5074021;28;20235;-84
2023/09/08 06:08:32;;;;;;;6.77;5.53;;;;;;;;;;5073954;28;20257;-84
2023/09/08 06:11:02;;;;;;;13.53;9.83;;;;;;;;;;5073569;28;20212;-84
2023/09/08 06:13:30;;;;;;;14.43;8.97;;;;;;;;;;5073287;28;20219;-83
2023/09/08 06:15:59;;;;;;;6.30;5.80;;;;;;;;;;5073624;28;20239;-84
2023/09/08 06:18:30;;;;;;;8.27;7.33;;;;;;;;;;5073106;28;20221;-84
2023/09/08 06:21:00;;;;;;;9.90;6.70;;;;;;;;;;5073355;28;20238;-84
2023/09/08 06:23:29;;;;;;;14.67;11.33;;;;;;;;;;5073813;28;20212;-83
2023/09/08 06:25:59;;;;;;;14.43;12.33;;;;;;;;;;5073518;28;20257;-84
2023/09/08 06:28:28;;;;;;;10.03;7.57;;;;;;;;;;5073192;28;20201;-84
2023/09/08 06:30:57;;;;;;;11.23;8.57;;;;;;;;;;5073265;28;20253;-84
2023/09/08 06:33:25;;;;;;;11.83;9.03;;;;;;;;;;5072859;28;20280;-84
2023/09/08 06:35:54;;;;;;;4.03;3.10;;;;;;;;;;5073252;28;20291;-83
2023/09/08 06:38:24;;;;;;;3.63;3.43;;;;;;;;;;5073096;28;20204;-84
2023/09/08 06:40:54;;;;;;;0.30;0.30;;;;;;;;;;5067970;28;20214;-81
2023/09/08 06:43:24;;;;;;;16.33;12.90;;;;;;;;;;5071226;28;20205;-84
2023/09/08 06:45:59;;;;;;;17.63;15.13;;;;;;;;;;5073042;28;20209;-81
2023/09/08 06:48:33;;;;;;;22.33;16.07;;;;;;;;;;5072641;28;20258;-81
2023/09/08 06:51:03;;;;;;;13.63;11.03;;;;;;;;;;5072980;28;20235;-81
2023/09/08 06:53:33;;;;;;;18.47;14.77;;;;;;;;;;5073122;28;20295;-81
2023/09/08 06:56:02;;;;;;;8.47;7.20;;;;;;;;;;5073087;28;20238;-81
2023/09/08 06:58:30;;;;;;;9.33;7.13;;;;;;;;;;5073516;28;20197;-81
2023/09/08 07:00:59;;;;;;;16.90;12.37;;;;;;;;;;5073436;28;20237;-81
2023/09/08 07:03:27;;;;;;;9.33;8.07;;;;;;;;;;5073405;28;20198;-81
2023/09/08 07:05:58;;;;;;;0.40;0.40;;;;;;;;;;5073331;28;20244;-81
2023/09/08 07:08:26;;;;;;;19.27;16.17;;;;;;;;;;5072626;28;20203;-81
2023/09/08 07:10:56;;;;;;;19.53;16.00;;;;;;;;;;5073650;28;20215;-81
2023/09/08 07:13:25;;;;;;;3.90;3.53;;;;;;;;;;5073051;28;20219;-81
2023/09/08 07:15:54;;;;;;;17.57;11.27;;;;;;;;;;5073492;28;20253;-81
2023/09/08 07:18:23;;;;;;;22.13;17.27;;;;;;;;;;5073010;28;20238;-81
2023/09/08 07:20:51;;;;;;;21.00;18.50;;;;;;;;;;5072199;28;20206;-81
2023/09/08 07:23:20;;;;;;;17.67;14.23;;;;;;;;;;5072690;28;20465;-81
2023/09/08 07:25:49;;;;;;;22.30;17.23;;;;;;;;;;5073614;28;20222;-82
2023/09/08 07:28:22;;;;;;;22.63;20.20;;;;;;;;;;5073030;28;20194;-82
2023/09/08 07:30:53;;;;;;;18.40;12.90;;;;;;;;;;5072864;28;20214;-81
2023/09/08 07:33:23;;;;;;;11.20;9.83;;;;;;;;;;5072842;28;20196;-84
2023/09/08 07:35:51;;;;;;;17.17;13.20;;;;;;;;;;5072691;28;20260;-84
2023/09/08 07:38:20;;;;;;;17.37;14.23;;;;;;;;;;5073141;28;20211;-84
2023/09/08 07:40:48;;;;;;;20.17;17.97;;;;;;;;;;5072795;28;20212;-83
2023/09/08 07:43:17;;;;;;;13.63;11.47;;;;;;;;;;5072713;28;20201;-84
2023/09/08 07:45:47;;;;;;;20.30;13.70;;;;;;;;;;5072810;28;20222;-84
2023/09/08 07:48:16;;;;;;;2.17;2.07;;;;;;;;;;5073270;28;20208;-84
2023/09/08 07:50:44;;;;;;;18.33;12.47;;;;;;;;;;5073027;28;20293;-84
2023/09/08 07:53:13;;;;;;;1.57;1.47;;;;;;;;;;5073146;28;20211;-84
2023/09/08 07:55:41;;;;;;;3.63;2.17;;;;;;;;;;5072755;28;20300;-85
2023/09/08 07:58:10;;;;;;;22.10;15.63;;;;;;;;;;5072614;28;20199;-84
2023/09/08 08:00:39;;;;;;;2.00;1.83;;;;;;;;;;5073028;28;20257;-84
2023/09/08 08:03:09;;;;;;;1.30;1.30;;;;;;;;;;5072834;28;20212;-84
2023/09/08 08:05:38;;;;;;;14.50;10.47;;;;;;;;;;5071963;28;20205;-84
2023/09/08 08:08:09;;;;;;;17.20;11.40;;;;;;;;;;5072383;28;20298;-84
2023/09/08 08:10:38;;;;;;;21.50;19.20;;;;;;;;;;5071960;28;20248;-83
2023/09/08 08:13:06;;;;;;;22.00;15.80;;;;;;;;;;5071784;28;20205;-83
2023/09/08 08:15:39;;;;;;;24.33;19.30;;;;;;;;;;5072056;28;20321;-83
2023/09/08 08:18:09;;;;;;;21.80;15.77;;;;;;;;;;5072602;28;20212;-84
2023/09/08 08:20:39;;;;;;;17.53;13.20;;;;;;;;;;5072975;28;20197;-83
2023/09/08 08:23:08;;;;;;;1.90;1.80;;;;;;;;;;5072823;28;20211;-84
2023/09/08 08:25:37;;;;;;;18.67;11.37;;;;;;;;;;5072139;28;20208;-84
2023/09/08 08:28:06;;;;;;;16.67;11.43;;;;;;;;;;5072427;28;20198;-84
2023/09/08 08:30:35;;;;;;;15.47;10.53;;;;;;;;;;5072641;28;20225;-84
2023/09/08 08:33:04;;;;;;;20.63;15.13;;;;;;;;;;5074340;28;20206;-83
2023/09/08 08:35:32;;;;;;;26.97;20.67;;;;;;;;;;5075895;28;20226;-83
2023/09/08 08:38:02;;;;;;;13.97;8.90;;;;;;;;;;5076576;28;20272;-84
2023/09/08 08:40:31;;;;;;;23.97;17.17;;;;;;;;;;5075466;28;20203;-84
2023/09/08 08:43:00;;;;;;;16.30;13.00;;;;;;;;;;5075830;28;20203;-84
2023/09/08 08:45:31;;;;;;;24.30;19.73;;;;;;;;;;5076661;28;20213;-84
2023/09/08 08:47:59;;;;;;;8.43;6.77;;;;;;;;;;5076403;28;20223;-84
2023/09/08 08:50:28;;;;;;;6.60;5.87;;;;;;;;;;5076099;28;20197;-83
2023/09/08 08:52:57;;;;;;;22.70;17.07;;;;;;;;;;5075450;28;20226;-84
2023/09/08 08:55:27;;;;;;;20.87;15.73;;;;;;;;;;5075638;28;20506;-84
2023/09/08 08:57:56;;;;;;;15.20;10.77;;;;;;;;;;5075734;28;20211;-84
2023/09/08 09:00:24;;;;;;;4.97;3.03;;;;;;;;;;5074977;28;20266;-83
2023/09/08 09:02:53;;;;;;;18.37;13.97;;;;;;;;;;5074541;28;20289;-83
2023/09/08 09:05:39;;;;;;;23.43;18.73;;;;;;;;;;5075168;28;20383;-84
2023/09/08 09:08:09;;;;;;;5.63;5.07;;;;;;;;;;5074625;28;20220;-84
2023/09/08 09:10:39;;;;;;;22.00;16.80;;;;;;;;;;5073964;28;20299;-83
2023/09/08 09:13:07;;;;;;;3.43;3.17;;;;;;;;;;5074595;28;20232;-84
2023/09/08 09:15:36;;;;;;;19.57;14.90;;;;;;;;;;5074351;28;20243;-84
2023/09/08 09:18:05;;;;;;;2.63;2.47;;;;;;;;;;5073740;28;20261;-84
2023/09/08 09:20:34;;;;;;;16.23;12.63;;;;;;;;;;5073880;28;20262;-85
2023/09/08 09:23:03;;;;;;;1.27;1.20;;;;;;;;;;5074417;28;20209;-83
2023/09/08 09:25:33;;;;;;;4.40;4.00;;;;;;;;;;5074200;28;20197;-84
2023/09/08 09:28:04;;;;;;;16.17;9.30;;;;;;;;;;5073713;28;20213;-84
2023/09/08 09:30:47;;;;;;;19.87;13.73;;;;;;;;;;5075123;28;20206;-83
2023/09/08 09:33:16;;;;;;;4.37;2.97;;;;;;;;;;5075407;28;20341;-83
2023/09/08 09:35:45;;;;;;;20.83;15.37;;;;;;;;;;5074163;28;20207;-84
2023/09/08 09:38:14;;;;;;;5.63;2.27;;;;;;;;;;5074274;28;20205;-84
2023/09/08 09:40:43;;;;;;;18.77;13.47;;;;;;;;;;5073959;28;20254;-84
2023/09/08 09:43:13;;;;;;;21.20;16.23;;;;;;;;;;5073571;28;20226;-83
2023/09/08 09:45:42;;;;;;;12.00;9.23;;;;;;;;;;5073240;28;20255;-83
2023/09/08 09:48:12;;;;;;;0.77;0.77;;;;;;;;;;5073476;28;20214;-84
2023/09/08 09:50:42;;;;;;;4.00;3.33;;;;;;;;;;5074148;28;20206;-86
2023/09/08 09:53:12;;;;;;;3.90;3.57;;;;;;;;;;5074939;28;20299;-85
2023/09/08 09:55:42;;;;;;;25.47;14.43;;;;;;;;;;5074469;28;20272;-85
2023/09/08 09:58:11;;;;;;;2.80;2.60;;;;;;;;;;5074598;28;20241;-85
2023/09/08 10:00:45;;;;;;;3.33;2.70;;;;;;;;;;5074238;28;20199;-85
2023/09/08 10:03:15;;;;;;;3.33;1.20;;;;;;;;;;5074904;28;20253;-85
2023/09/08 10:05:46;;;;;;;6.93;6.00;;;;;;;;;;5074747;28;20214;-86
2023/09/08 10:08:15;;;;;;;1.33;1.27;;;;;;;;;;5074479;28;20323;-86
2023/09/08 10:10:47;;;;;;;31.97;2.93;;;;;;;;;;5075062;28;20208;-85
2023/09/08 10:13:19;;;;;;;4.13;2.30;;;;;;;;;;5075017;28;20205;-85
2023/09/08 10:15:50;;;;;;;0.90;0.90;;;;;;;;;;5074627;28;20322;-86
2023/09/08 10:18:21;;;;;;;1.73;1.70;;;;;;;;;;5074106;28;20415;-86
2023/09/08 10:20:50;;;;;;;2.70;2.53;;;;;;;;;;5074622;28;20208;-86
2023/09/08 10:23:24;;;;;;;18.63;13.23;;;;;;;;;;5073791;28;20212;-86
2023/09/08 10:25:54;;;;;;;17.67;12.90;;;;;;;;;;5074323;28;20193;-86
2023/09/08 10:28:23;;;;;;;17.60;12.17;;;;;;;;;;5073632;28;20208;-86
2023/09/08 10:30:54;;;;;;;8.90;6.73;;;;;;;;;;5073448;28;20204;-86
2023/09/08 10:33:24;;;;;;;12.17;8.90;;;;;;;;;;5073696;28;20200;-86
2023/09/08 10:35:53;;;;;;;10.63;7.83;;;;;;;;;;5074366;28;20228;-87
2023/09/08 10:38:25;;;;;;;15.63;7.10;;;;;;;;;;5074728;28;20205;-86
2023/09/08 10:40:54;;;;;;;9.70;7.50;;;;;;;;;;5074062;28;20257;-86
2023/09/08 10:43:25;;;;;;;9.80;7.50;;;;;;;;;;5074800;28;20193;-86
2023/09/08 10:45:55;;;;;;;2.23;1.93;;;;;;;;;;5074558;28;20201;-86
2023/09/08 10:48:24;;;;;;;12.40;9.10;;;;;;;;;;5074336;28;20257;-86
2023/09/08 10:50:53;;;;;;;4.30;3.20;;;;;;;;;;5073207;28;20198;-86
2023/09/08 10:53:23;;;;;;;9.10;5.63;;;;;;;;;;5073994;28;20201;-86
2023/09/08 10:55:54;;;;;;;2.97;1.63;;;;;;;;;;5073253;28;20206;-86
2023/09/08 10:58:32;;;;;;;13.87;11.90;;;;;;;;;;5074335;28;20202;-86
2023/09/08 11:01:04;;;;;;;2.43;2.23;;;;;;;;;;5076015;28;20247;-87
2023/09/08 11:03:45;;;;;;;16.87;12.30;;;;;;;;;;5075030;28;20236;-86
2023/09/08 11:06:14;;;;;;;4.07;3.90;;;;;;;;;;5074116;28;20203;-85
2023/09/08 11:08:43;;;;;;;0.23;0.23;;;;;;;;;;5074397;28;20244;-87
2023/09/08 11:11:12;;;;;;;7.53;6.27;;;;;;;;;;5075568;28;20210;-86
2023/09/08 11:13:41;;;;;;;10.67;7.67;;;;;;;;;;5075241;28;20300;-86
2023/09/08 11:16:13;;;;;;;18.93;13.87;;;;;;;;;;5075513;28;20234;-86
2023/09/08 11:18:42;;;;;;;3.00;2.50;;;;;;;;;;5076266;28;20273;-87
2023/09/08 11:21:12;;;;;;;3.93;3.60;;;;;;;;;;5075945;28;20251;-86
2023/09/08 11:23:40;;;;;;;4.87;4.23;;;;;;;;;;5076304;28;20271;-86
2023/09/08 11:26:09;;;;;;;8.90;6.87;;;;;;;;;;5076114;28;20205;-86
2023/09/08 11:28:38;;;;;;;4.70;4.23;;;;;;;;;;5075452;28;20634;-86
2023/09/08 11:31:07;;;;;;;2.23;2.13;;;;;;;;;;5075844;28;20371;-86
2023/09/08 11:33:39;;;;;;;7.10;3.97;;;;;;;;;;5075760;28;20215;-87
2023/09/08 11:36:14;;;;;;;7.97;2.23;;;;;;;;;;5073104;28;20244;-86
2023/09/08 11:38:44;;;;;;;2.93;1.97;;;;;;;;;;5072477;28;20268;-86
2023/09/08 11:41:12;;;;;;;4.73;4.33;;;;;;;;;;5072546;28;20206;-86
2023/09/08 11:43:41;;;;;;;17.83;10.27;;;;;;;;;;5072002;28;20201;-86
2023/09/08 11:46:10;;;;;;;18.43;15.27;;;;;;;;;;5072784;28;20279;-86
2023/09/08 11:48:41;;;;;;;4.03;3.53;;;;;;;;;;5073720;28;20271;-86
2023/09/08 11:51:09;;;;;;;14.63;11.83;;;;;;;;;;5073799;28;20198;-86
2023/09/08 11:53:38;;;;;;;12.03;5.77;;;;;;;;;;5073718;28;20293;-86
2023/09/08 11:56:08;;;;;;;5.90;5.07;;;;;;;;;;5074579;28;20205;-86
2023/09/08 11:58:37;;;;;;;0.93;0.93;;;;;;;;;;5074284;28;20197;-86
2023/09/08 12:01:06;;;;;;;7.30;6.23;;;;;;;;;;5073446;28;20240;-86
2023/09/08 12:03:35;;;;;;;6.97;6.30;;;;;;;;;;5074069;28;20239;-86
2023/09/08 12:06:05;;;;;;;6.77;5.10;;;;;;;;;;5074050;28;20224;-86
2023/09/08 12:08:33;;;;;;;2.80;2.60;;;;;;;;;;5076844;28;20241;-86
2023/09/08 12:11:05;;;;;;;2.43;1.53;;;;;;;;;;5075382;28;20226;-87
2023/09/08 12:13:34;;;;;;;9.90;7.53;;;;;;;;;;5076646;28;20212;-86
2023/09/08 12:16:02;;;;;;;5.73;2.77;;;;;;;;;;5076838;28;20235;-87
2023/09/08 12:18:50;;;;;;;8.37;6.57;;;;;;;;;;5076552;28;20201;-86
2023/09/08 12:21:21;;;;;;;0.87;0.87;;;;;;;;;;5076258;28;20236;-87
2023/09/08 12:23:50;;;;;;;3.60;2.63;;;;;;;;;;5076990;28;20202;-86
2023/09/08 12:26:19;;;;;;;0.77;0.77;;;;;;;;;;5076041;28;20202;-86
2023/09/08 12:28:48;;;;;;;0.20;0.20;;;;;;;;;;5076036;28;20256;-86
2023/09/08 12:31:19;;;;;;;5.33;3.97;;;;;;;;;;5075884;28;20202;-85
2023/09/08 12:33:48;;;;;;;9.30;7.60;;;;;;;;;;5076195;28;20217;-87
2023/09/08 12:36:17;;;;;;;3.43;3.10;;;;;;;;;;5076191;28;20217;-86
2023/09/08 12:38:50;;;;;;;1.63;1.53;;;;;;;;;;5076296;28;20265;-87
2023/09/08 12:41:18;;;;;;;1.20;1.20;;;;;;;;;;5077741;28;20202;-86
2023/09/08 12:43:47;;;;;;;1.90;1.80;;;;;;;;;;5077386;28;20202;-86
2023/09/08 12:46:18;;;;;;;4.20;3.83;;;;;;;;;;5077277;28;20221;-86
2023/09/08 12:48:47;;;;;;;0.60;0.57;;;;;;;;;;5077448;28;20221;-86
2023/09/08 12:51:16;;;;;;;1.20;1.20;;;;;;;;;;5077098;28;20216;-86
2023/09/08 12:53:45;;;;;;;4.17;3.80;;;;;;;;;;5076788;28;20208;-86
2023/09/08 12:56:15;;;;;;;1.53;1.43;;;;;;;;;;5076210;28;20229;-86
2023/09/08 12:58:43;;;;;;;1.17;1.17;;;;;;;;;;5075933;28;20194;-87
2023/09/08 13:01:12;;;;;;;2.73;2.33;;;;;;;;;;5075882;28;20206;-86
2023/09/08 13:03:41;;;;;;;4.13;3.70;;;;;;;;;;5076180;28;20251;-86
2023/09/08 13:06:09;;;;;;;1.33;1.07;;;;;;;;;;5075621;28;20270;-86
2023/09/08 13:08:38;;;;;;;2.93;2.73;;;;;;;;;;5075756;28;20233;-86
2023/09/08 13:11:06;;;;;;;1.97;1.57;;;;;;;;;;5076607;28;20202;-86
2023/09/08 13:13:36;;;;;;;2.13;1.63;;;;;;;;;;5075660;28;20251;-83
2023/09/08 13:16:06;;;;;;;2.47;1.23;;;;;;;;;;5073367;28;20240;-84
2023/09/08 13:18:38;;;;;;;4.40;2.40;;;;;;;;;;5073196;28;20186;-83
2023/09/08 13:21:06;;;;;;;3.10;2.83;;;;;;;;;;5073990;28;20202;-83
2023/09/08 13:23:35;;;;;;;1.20;1.07;;;;;;;;;;5073210;28;20194;-83
2023/09/08 13:26:03;;;;;;;3.57;3.27;;;;;;;;;;5073742;28;20197;-83
2023/09/08 13:28:32;;;;;;;1.07;1.07;;;;;;;;;;5073698;28;20198;-83
2023/09/08 13:31:02;;;;;;;1.60;1.17;;;;;;;;;;5073986;28;20206;-86
2023/09/08 13:33:31;;;;;;;2.57;2.40;;;;;;;;;;5076552;28;20198;-86
2023/09/08 13:35:59;;;;;;;1.20;1.20;;;;;;;;;;5076775;28;20205;-86
2023/09/08 13:38:28;;;;;;;5.93;3.13;;;;;;;;;;5075307;28;20210;-86
2023/09/08 13:40:57;;;;;;;3.00;2.77;;;;;;;;;;5075451;28;20198;-86
2023/09/08 13:43:25;;;;;;;6.73;4.33;;;;;;;;;;5076430;28;20205;-86
2023/09/08 13:45:55;;;;;;;3.80;2.33;;;;;;;;;;5075832;28;20209;-86
2023/09/08 13:48:25;;;;;;;2.60;1.37;;;;;;;;;;5076104;28;20202;-86
2023/09/08 13:50:55;;;;;;;4.10;2.73;;;;;;;;;;5076421;28;20243;-86
2023/09/08 13:53:26;;;;;;;6.93;2.20;;;;;;;;;;5076322;28;20190;-86
2023/09/08 13:56:10;;;;;;;1.50;1.40;;;;;;;;;;5075721;28;20194;-86
2023/09/08 13:58:45;;;;;;;1.40;1.30;;;;;;;;;;5076331;28;20284;-87
2023/09/08 14:01:24;;;;;;;3.30;2.60;;;;;;;;;;5075992;28;20224;-87
2023/09/08 14:03:56;;;;;;;2.17;1.97;;;;;;;;;;5076085;28;20189;-86
2023/09/08 14:06:30;;;;;;;2.17;2.00;;;;;;;;;;5076264;28;20204;-86
2023/09/08 14:09:08;;;;;;;0.70;0.70;;;;;;;;;;5075623;28;20314;-86
2023/09/08 14:11:56;;;;;;;6.60;3.57;;;;;;;;;;5075789;28;20247;-87
2023/09/08 14:14:28;;;;;;;4.03;2.90;;;;;;;;;;5076284;28;20230;-86
2023/09/08 14:16:57;;;;;;;3.30;1.80;;;;;;;;;;5075560;28;20197;-86
2023/09/08 14:19:27;;;;;;;1.43;1.33;;;;;;;;;;5075607;28;20222;-86
2023/09/08 14:21:55;;;;;;;0.87;0.87;;;;;;;;;;5075725;28;20204;-86
2023/09/08 14:24:25;;;;;;;4.00;2.47;;;;;;;;;;5076903;28;20208;-86
2023/09/08 14:26:53;;;;;;;2.13;1.93;;;;;;;;;;5084151;28;20198;-86
2023/09/08 14:29:23;;;;;;;3.30;3.00;;;;;;;;;;5084478;28;20222;-87
2023/09/08 14:31:52;;;;;;;6.17;2.43;;;;;;;;;;5075698;28;20212;-86
2023/09/08 14:34:20;;;;;;;0.93;0.87;;;;;;;;;;5075466;28;20197;-86
2023/09/08 14:36:51;;;;;;;6.27;1.60;;;;;;;;;;5074456;28;20390;-86
2023/09/08 14:39:20;;;;;;;4.37;3.23;;;;;;;;;;5074251;28;20208;-86
2023/09/08 14:41:52;;;;;;;3.57;2.50;;;;;;;;;;5074351;28;20202;-86
2023/09/08 14:44:22;;;;;;;2.73;2.53;;;;;;;;;;5074680;28;20259;-86
2023/09/08 14:46:52;;;;;;;2.03;1.90;;;;;;;;;;5074713;28;20253;-86
2023/09/08 14:49:20;;;;;;;0.93;0.90;;;;;;;;;;5074387;28;20221;-87
2023/09/08 14:51:49;;;;;;;1.50;1.30;;;;;;;;;;5074031;28;20202;-87